sensor_id;sensor_type;location;lat;lon;timestamp;pressure;altitude;pressure_sealevel;temperature;humidity
55317;BME280;41178;48.956;8.130;2023-04-30T00:04:10;100063.09;;;14.23;48.18
55317;BME280;41178;48.956;8.130;2023-04-30T00:09:12;100073.34;;;13.64;49.46
55317;BME280;41178;48.956;8.130;2023-04-30T00:14:13;100061.50;;;15.82;46.63
55317;BME280;41178;48.956;8.130;2023-04-30T00:19:15;100083.50;;;14.59;48.27
55317;BME280;41178;48.956;8.130;2023-04-30T00:24:17;100046.06;;;13.33;49.70
55317;BME280;41178;48.956;8.130;2023-04-30T00:29:18;100017.88;;;13.00;50.10
55317;BME280;41178;48.956;8.130;2023-04-30T00:34:20;100057.75;;;13.25;50.02
55317;BME280;41178;48.956;8.130;2023-04-30T00:39:22;100023.34;;;14.18;48.54
55317;BME280;41178;48.956;8.130;2023-04-30T00:44:23;100062.66;;;13.43;49.69
55317;BME280;41178;48.956;8.130;2023-04-30T00:49:25;100043.38;;;14.98;47.59
55317;BME280;41178;48.956;8.130;2023-04-30T00:54:27;100007.97;;;12.72;50.15
55317;BME280;41178;48.956;8.130;2023-04-30T00:59:28;100081.97;;;13.88;49.05
55317;BME280;41178;48.956;8.130;2023-04-30T01:04:30;100057.41;;;13.28;49.63
55317;BME280;41178;48.956;8.130;2023-04-30T01:09:33;100072.81;;;14.11;49.62
55317;BME280;41178;48.956;8.130;2023-04-30T01:20:02;100029.78;;;13.76;48.65
55317;BME280;41178;48.956;8.130;2023-04-30T01:30:40;100062.03;;;13.76;49.35
55317;BME280;41178;48.956;8.130;2023-04-30T01:36:08;100051.78;;;13.58;49.22
55317;BME280;41178;48.956;8.130;2023-04-30T01:41:30;100070.91;;;13.35;50.42
55317;BME280;41178;48.956;8.130;2023-04-30T01:46:33;100024.81;;;12.88;50.17
55317;BME280;41178;48.956;8.130;2023-04-30T01:51:39;100045.44;;;14.82;47.54
55317;BME280;41178;48.956;8.130;2023-04-30T01:56:59;100047.56;;;13.42;49.60
55317;BME280;41178;48.956;8.130;2023-04-30T02:02:03;100066.94;;;14.00;49.44
55317;BME280;41178;48.956;8.130;2023-04-30T02:07:04;100079.19;;;13.75;49.56
55317;BME280;41178;48.956;8.130;2023-04-30T02:12:06;100079.84;;;13.77;49.32
55317;BME280;41178;48.956;8.130;2023-04-30T02:17:08;100036.50;;;12.59;50.55
55317;BME280;41178;48.956;8.130;2023-04-30T02:22:09;100048.88;;;12.74;50.91
55317;BME280;41178;48.956;8.130;2023-04-30T02:27:11;100058.53;;;12.69;50.85
55317;BME280;41178;48.956;8.130;2023-04-30T02:32:13;100025.28;;;12.48;50.72
55317;BME280;41178;48.956;8.130;2023-04-30T02:37:15;100065.19;;;14.21;49.57
55317;BME280;41178;48.956;8.130;2023-04-30T02:42:17;100043.44;;;13.46;49.21
55317;BME280;41178;48.956;8.130;2023-04-30T02:47:18;100061.44;;;13.45;50.45
55317;BME280;41178;48.956;8.130;2023-04-30T02:52:21;100061.63;;;13.44;49.51
55317;BME280;41178;48.956;8.130;2023-04-30T02:57:23;100047.09;;;13.66;49.42
55317;BME280;41178;48.956;8.130;2023-04-30T03:02:24;100063.31;;;13.87;49.55
55317;BME280;41178;48.956;8.130;2023-04-30T03:07:26;100053.28;;;12.82;50.72
55317;BME280;41178;48.956;8.130;2023-04-30T03:12:28;100006.25;;;12.07;51.77
55317;BME280;41178;48.956;8.130;2023-04-30T03:17:29;100054.88;;;13.48;50.04
55317;BME280;41178;48.956;8.130;2023-04-30T03:22:31;100046.94;;;12.47;51.07
55317;BME280;41178;48.956;8.130;2023-04-30T03:27:33;100045.41;;;12.59;50.86
55317;BME280;41178;48.956;8.130;2023-04-30T03:32:35;100045.81;;;13.97;49.24
55317;BME280;41178;48.956;8.130;2023-04-30T03:37:36;100049.03;;;14.21;48.05
55317;BME280;41178;48.956;8.130;2023-04-30T03:42:38;100058.84;;;13.94;49.41
55317;BME280;41178;48.956;8.130;2023-04-30T03:47:41;100048.66;;;12.54;50.79
55317;BME280;41178;48.956;8.130;2023-04-30T03:52:44;100028.88;;;12.04;51.79
55317;BME280;41178;48.956;8.130;2023-04-30T03:57:46;99999.59;;;11.88;51.03
55317;BME280;41178;48.956;8.130;2023-04-30T04:02:48;100035.03;;;13.27;49.22
55317;BME280;41178;48.956;8.130;2023-04-30T04:07:50;100058.50;;;13.69;48.95
55317;BME280;41178;48.956;8.130;2023-04-30T04:13:16;100110.94;;;15.03;46.64
55317;BME280;41178;48.956;8.130;2023-04-30T04:18:41;100046.00;;;14.64;46.17
55317;BME280;41178;48.956;8.130;2023-04-30T04:24:08;100096.44;;;14.97;46.64
55317;BME280;41178;48.956;8.130;2023-04-30T04:29:34;100085.56;;;14.57;46.89
55317;BME280;41178;48.956;8.130;2023-04-30T04:35:00;100088.75;;;14.94;46.43
55317;BME280;41178;48.956;8.130;2023-04-30T04:40:27;100088.28;;;14.77;46.64
55317;BME280;41178;48.956;8.130;2023-04-30T04:45:52;100070.06;;;14.72;46.86
55317;BME280;41178;48.956;8.130;2023-04-30T04:51:19;100094.03;;;14.54;47.19
55317;BME280;41178;48.956;8.130;2023-04-30T04:56:44;100066.84;;;13.24;48.26
55317;BME280;41178;48.956;8.130;2023-04-30T05:02:11;100084.44;;;13.55;48.65
55317;BME280;41178;48.956;8.130;2023-04-30T05:07:36;100063.72;;;12.70;49.96
55317;BME280;41178;48.956;8.130;2023-04-30T05:13:02;100082.56;;;13.48;48.88
55317;BME280;41178;48.956;8.130;2023-04-30T05:18:28;100080.03;;;13.19;48.83
55317;BME280;41178;48.956;8.130;2023-04-30T05:23:54;100089.81;;;14.25;48.26
55317;BME280;41178;48.956;8.130;2023-04-30T05:29:20;100094.69;;;13.73;49.28
55317;BME280;41178;48.956;8.130;2023-04-30T05:34:46;100112.59;;;13.09;49.87
55317;BME280;41178;48.956;8.130;2023-04-30T05:40:12;100117.72;;;14.72;48.24
55317;BME280;41178;48.956;8.130;2023-04-30T05:45:38;100086.03;;;13.21;49.82
55317;BME280;41178;48.956;8.130;2023-04-30T05:51:04;100100.09;;;14.69;48.59
55317;BME280;41178;48.956;8.130;2023-04-30T05:56:32;100104.56;;;13.94;49.81
55317;BME280;41178;48.956;8.130;2023-04-30T06:01:59;100101.84;;;14.35;48.63
55317;BME280;41178;48.956;8.130;2023-04-30T06:07:25;100074.91;;;13.24;49.75
55317;BME280;41178;48.956;8.130;2023-04-30T06:12:51;100087.09;;;15.53;46.73
55317;BME280;41178;48.956;8.130;2023-04-30T06:18:17;100085.44;;;14.85;47.48
55317;BME280;41178;48.956;8.130;2023-04-30T06:23:43;100099.16;;;15.37;46.90
55317;BME280;41178;48.956;8.130;2023-04-30T06:29:09;100055.53;;;14.05;47.25
55317;BME280;41178;48.956;8.130;2023-04-30T06:34:34;100082.41;;;14.40;48.08
55317;BME280;41178;48.956;8.130;2023-04-30T06:40:01;100085.44;;;14.17;48.65
55317;BME280;41178;48.956;8.130;2023-04-30T06:45:27;100087.75;;;15.08;47.17
55317;BME280;41178;48.956;8.130;2023-04-30T06:50:53;100087.28;;;15.65;45.96
55317;BME280;41178;48.956;8.130;2023-04-30T06:56:19;100068.19;;;14.66;47.03
55317;BME280;41178;48.956;8.130;2023-04-30T07:01:46;100020.31;;;13.93;47.49
55317;BME280;41178;48.956;8.130;2023-04-30T07:07:12;100036.25;;;15.50;45.95
55317;BME280;41178;48.956;8.130;2023-04-30T07:12:38;100085.53;;;14.44;47.83
55317;BME280;41178;48.956;8.130;2023-04-30T07:18:04;100016.59;;;15.36;45.58
55317;BME280;41178;48.956;8.130;2023-04-30T07:23:30;100029.63;;;15.66;45.79
55317;BME280;41178;48.956;8.130;2023-04-30T07:28:56;100064.78;;;16.43;44.61
55317;BME280;41178;48.956;8.130;2023-04-30T09:38:30;99871.84;;;18.29;39.71
55317;BME280;41178;48.956;8.130;2023-04-30T09:43:32;99907.38;;;16.61;40.74
55317;BME280;41178;48.956;8.130;2023-04-30T09:48:34;99915.00;;;16.46;40.96
55317;BME280;41178;48.956;8.130;2023-04-30T09:53:41;99917.25;;;17.17;39.89
55317;BME280;41178;48.956;8.130;2023-04-30T09:58:43;99870.22;;;17.18;39.71
55317;BME280;41178;48.956;8.130;2023-04-30T10:03:48;99847.59;;;18.58;38.49
55317;BME280;41178;48.956;8.130;2023-04-30T10:08:52;99813.19;;;19.23;38.69
55317;BME280;41178;48.956;8.130;2023-04-30T10:14:02;99839.91;;;18.90;38.47
55317;BME280;41178;48.956;8.130;2023-04-30T10:19:16;99822.63;;;18.68;38.78
55317;BME280;41178;48.956;8.130;2023-04-30T10:24:19;99853.84;;;18.46;38.65
55317;BME280;41178;48.956;8.130;2023-04-30T10:29:21;99839.38;;;18.41;38.38
55317;BME280;41178;48.956;8.130;2023-04-30T10:39:45;99837.53;;;18.23;38.86
55317;BME280;41178;48.956;8.130;2023-04-30T10:44:47;99762.88;;;18.74;38.18
55317;BME280;41178;48.956;8.130;2023-04-30T10:49:49;99822.25;;;18.28;38.23
55317;BME280;41178;48.956;8.130;2023-04-30T10:54:51;99731.16;;;18.75;37.21
55317;BME280;41178;48.956;8.130;2023-04-30T11:00:19;99760.78;;;19.05;37.78
55317;BME280;41178;48.956;8.130;2023-04-30T11:07:15;99896.34;;;15.74;41.72
55317;BME280;41178;48.956;8.130;2023-04-30T11:12:19;99823.13;;;16.89;41.33
55317;BME280;41178;48.956;8.130;2023-04-30T11:17:29;99795.91;;;17.70;40.04
55317;BME280;41178;48.956;8.130;2023-04-30T11:22:32;99829.13;;;16.91;39.61
55317;BME280;41178;48.956;8.130;2023-04-30T11:27:40;99854.66;;;16.58;40.20
55317;BME280;41178;48.956;8.130;2023-04-30T11:32:44;99763.59;;;17.87;40.11
55317;BME280;41178;48.956;8.130;2023-04-30T11:37:53;99785.00;;;17.77;39.12
55317;BME280;41178;48.956;8.130;2023-04-30T11:42:55;99782.34;;;17.28;39.11
55317;BME280;41178;48.956;8.130;2023-04-30T11:47:57;99773.47;;;17.93;38.60
55317;BME280;41178;48.956;8.130;2023-04-30T11:52:59;99807.47;;;17.47;38.40
55317;BME280;41178;48.956;8.130;2023-04-30T11:58:08;99797.31;;;17.72;37.68
55317;BME280;41178;48.956;8.130;2023-04-30T12:03:13;99780.50;;;16.91;37.41
55317;BME280;41178;48.956;8.130;2023-04-30T12:08:18;99801.00;;;16.80;37.76
55317;BME280;41178;48.956;8.130;2023-04-30T12:13:56;99802.09;;;16.91;37.42
55317;BME280;41178;48.956;8.130;2023-04-30T12:18:58;99772.63;;;16.53;37.56
55317;BME280;41178;48.956;8.130;2023-04-30T12:23:59;99796.22;;;17.31;36.96
55317;BME280;41178;48.956;8.130;2023-04-30T12:29:07;99796.69;;;17.59;36.45
55317;BME280;41178;48.956;8.130;2023-04-30T12:34:12;99757.34;;;18.10;36.70
55317;BME280;41178;48.956;8.130;2023-04-30T12:39:38;99761.94;;;17.44;37.69
55317;BME280;41178;48.956;8.130;2023-04-30T12:44:42;99788.66;;;17.82;37.15
55317;BME280;41178;48.956;8.130;2023-04-30T12:49:48;99746.03;;;18.25;36.54
55317;BME280;41178;48.956;8.130;2023-04-30T12:54:49;99711.56;;;18.84;37.51
55317;BME280;41178;48.956;8.130;2023-04-30T13:04:53;99717.34;;;18.48;35.51
55317;BME280;41178;48.956;8.130;2023-04-30T13:09:55;99694.16;;;19.26;35.64
55317;BME280;41178;48.956;8.130;2023-04-30T13:14:57;99660.94;;;18.73;36.37
55317;BME280;41178;48.956;8.130;2023-04-30T13:19:59;99693.75;;;18.48;36.57
55317;BME280;41178;48.956;8.130;2023-04-30T13:25:00;99682.22;;;18.93;36.47
55317;BME280;41178;48.956;8.130;2023-04-30T13:30:02;99674.63;;;18.67;36.29
55317;BME280;41178;48.956;8.130;2023-04-30T13:35:05;99655.88;;;18.65;36.31
55317;BME280;41178;48.956;8.130;2023-04-30T13:40:08;99563.34;;;19.97;35.65
55317;BME280;41178;48.956;8.130;2023-04-30T13:45:10;99686.94;;;18.86;36.13
55317;BME280;41178;48.956;8.130;2023-04-30T13:50:12;99675.41;;;18.26;36.17
55317;BME280;41178;48.956;8.130;2023-04-30T13:55:14;99636.13;;;18.93;36.64
55317;BME280;41178;48.956;8.130;2023-04-30T14:00:16;99640.38;;;18.77;36.19
55317;BME280;41178;48.956;8.130;2023-04-30T14:05:17;99638.94;;;18.29;35.73
55317;BME280;41178;48.956;8.130;2023-04-30T14:10:19;99587.66;;;19.31;35.63
55317;BME280;41178;48.956;8.130;2023-04-30T14:15:21;99591.94;;;19.10;35.45
55317;BME280;41178;48.956;8.130;2023-04-30T14:20:23;99597.94;;;18.66;36.05
55317;BME280;41178;48.956;8.130;2023-04-30T14:25:25;99651.03;;;18.67;35.37
55317;BME280;41178;48.956;8.130;2023-04-30T14:30:27;99592.75;;;19.10;34.54
55317;BME280;41178;48.956;8.130;2023-04-30T14:35:28;99619.63;;;18.95;35.34
55317;BME280;41178;48.956;8.130;2023-04-30T14:40:30;99587.97;;;19.17;35.46
55317;BME280;41178;48.956;8.130;2023-04-30T14:45:32;99587.66;;;18.97;35.46
55317;BME280;41178;48.956;8.130;2023-04-30T14:50:34;99602.19;;;19.08;34.82
55317;BME280;41178;48.956;8.130;2023-04-30T14:55:36;99586.84;;;17.75;36.30
55317;BME280;41178;48.956;8.130;2023-04-30T15:00:38;99595.31;;;17.90;36.23
55317;BME280;41178;48.956;8.130;2023-04-30T15:05:40;99611.75;;;18.81;35.91
55317;BME280;41178;48.956;8.130;2023-04-30T15:10:41;99606.34;;;18.53;35.71
55317;BME280;41178;48.956;8.130;2023-04-30T15:15:43;99609.59;;;18.67;35.46
55317;BME280;41178;48.956;8.130;2023-04-30T15:20:47;99562.00;;;19.55;35.36
55317;BME280;41178;48.956;8.130;2023-04-30T15:25:49;99568.78;;;18.90;35.07
55317;BME280;41178;48.956;8.130;2023-04-30T15:30:51;99573.28;;;19.30;35.29
55317;BME280;41178;48.956;8.130;2023-04-30T15:35:53;99521.06;;;19.57;34.80
55317;BME280;41178;48.956;8.130;2023-04-30T15:40:55;99572.44;;;19.13;35.76
55317;BME280;41178;48.956;8.130;2023-04-30T15:45:57;99568.41;;;19.32;34.89
55317;BME280;41178;48.956;8.130;2023-04-30T15:50:59;99545.19;;;19.58;34.50
55317;BME280;41178;48.956;8.130;2023-04-30T15:56:01;99522.19;;;19.83;34.38
55317;BME280;41178;48.956;8.130;2023-04-30T16:01:05;99536.69;;;19.72;34.27
55317;BME280;41178;48.956;8.130;2023-04-30T16:06:07;99476.34;;;19.87;34.42
55317;BME280;41178;48.956;8.130;2023-04-30T16:11:10;99537.69;;;19.27;34.66
55317;BME280;41178;48.956;8.130;2023-04-30T16:16:12;99515.47;;;19.30;34.57
55317;BME280;41178;48.956;8.130;2023-04-30T16:21:14;99470.78;;;19.99;34.57
55317;BME280;41178;48.956;8.130;2023-04-30T16:26:16;99539.72;;;19.19;35.48
55317;BME280;41178;48.956;8.130;2023-04-30T16:31:18;99484.66;;;20.02;34.55
55317;BME280;41178;48.956;8.130;2023-04-30T16:36:23;99467.25;;;18.81;35.36
55317;BME280;41178;48.956;8.130;2023-04-30T16:41:24;99428.22;;;21.01;33.73
55317;BME280;41178;48.956;8.130;2023-04-30T16:46:26;99482.28;;;19.84;33.91
55317;BME280;41178;48.956;8.130;2023-04-30T16:51:28;99462.69;;;20.58;33.77
55317;BME280;41178;48.956;8.130;2023-04-30T16:56:33;99416.91;;;21.25;33.11
55317;BME280;41178;48.956;8.130;2023-04-30T17:01:35;99467.41;;;21.05;33.78
55317;BME280;41178;48.956;8.130;2023-04-30T17:06:37;99453.50;;;19.83;34.07
55317;BME280;41178;48.956;8.130;2023-04-30T17:11:39;99481.41;;;19.78;33.77
55317;BME280;41178;48.956;8.130;2023-04-30T17:16:41;99405.34;;;20.97;32.87
55317;BME280;41178;48.956;8.130;2023-04-30T17:21:45;99453.69;;;20.25;33.78
55317;BME280;41178;48.956;8.130;2023-04-30T17:26:46;99484.50;;;20.14;33.90
55317;BME280;41178;48.956;8.130;2023-04-30T17:31:49;99454.81;;;19.36;34.96
55317;BME280;41178;48.956;8.130;2023-04-30T17:36:50;99487.06;;;20.21;33.62
55317;BME280;41178;48.956;8.130;2023-04-30T17:41:52;99461.25;;;20.83;32.87
55317;BME280;41178;48.956;8.130;2023-04-30T17:46:54;99463.16;;;21.25;32.99
55317;BME280;41178;48.956;8.130;2023-04-30T17:51:55;99451.16;;;21.69;31.92
55317;BME280;41178;48.956;8.130;2023-04-30T17:56:59;99410.16;;;21.33;32.19
55317;BME280;41178;48.956;8.130;2023-04-30T18:02:01;99427.31;;;22.12;32.10
55317;BME280;41178;48.956;8.130;2023-04-30T18:07:06;99438.97;;;21.92;31.68
55317;BME280;41178;48.956;8.130;2023-04-30T18:12:08;99422.34;;;21.88;32.33
55317;BME280;41178;48.956;8.130;2023-04-30T18:17:10;99430.69;;;21.08;33.83
55317;BME280;41178;48.956;8.130;2023-04-30T18:22:12;99441.22;;;20.02;33.92
55317;BME280;41178;48.956;8.130;2023-04-30T18:27:13;99436.91;;;19.79;33.90
55317;BME280;41178;48.956;8.130;2023-04-30T18:32:15;99489.13;;;20.95;32.99
55317;BME280;41178;48.956;8.130;2023-04-30T18:37:17;99461.06;;;20.95;32.35
55317;BME280;41178;48.956;8.130;2023-04-30T18:42:19;99456.09;;;21.24;32.07
55317;BME280;41178;48.956;8.130;2023-04-30T18:47:21;99468.63;;;20.82;32.36
55317;BME280;41178;48.956;8.130;2023-04-30T18:52:23;99467.44;;;21.58;31.44
55317;BME280;41178;48.956;8.130;2023-04-30T18:57:24;99450.94;;;18.93;34.12
55317;BME280;41178;48.956;8.130;2023-04-30T19:02:26;99514.50;;;19.19;34.03
55317;BME280;41178;48.956;8.130;2023-04-30T19:07:28;99534.78;;;19.16;34.20
55317;BME280;41178;48.956;8.130;2023-04-30T19:12:30;99534.09;;;19.82;33.63
55317;BME280;41178;48.956;8.130;2023-04-30T19:17:31;99491.56;;;19.27;35.60
55317;BME280;41178;48.956;8.130;2023-04-30T19:22:33;99428.00;;;21.13;33.29
55317;BME280;41178;48.956;8.130;2023-04-30T19:27:36;99475.63;;;21.11;32.50
55317;BME280;41178;48.956;8.130;2023-04-30T19:32:38;99489.38;;;18.56;34.96
55317;BME280;41178;48.956;8.130;2023-04-30T19:37:40;99511.94;;;17.63;36.39
55317;BME280;41178;48.956;8.130;2023-04-30T19:42:41;99549.63;;;17.94;36.42
55317;BME280;41178;48.956;8.130;2023-04-30T19:47:43;99562.22;;;17.88;36.67
55317;BME280;41178;48.956;8.130;2023-04-30T19:52:45;99545.00;;;16.76;38.17
55317;BME280;41178;48.956;8.130;2023-04-30T19:57:46;99549.63;;;16.57;38.91
55317;BME280;41178;48.956;8.130;2023-04-30T20:02:48;99542.28;;;16.76;38.63
55317;BME280;41178;48.956;8.130;2023-04-30T20:07:50;99553.28;;;17.05;37.87
55317;BME280;41178;48.956;8.130;2023-04-30T20:12:52;99540.38;;;17.54;37.09
55317;BME280;41178;48.956;8.130;2023-04-30T20:17:55;99543.88;;;17.19;37.51
55317;BME280;41178;48.956;8.130;2023-04-30T20:22:56;99545.31;;;17.57;37.08
55317;BME280;41178;48.956;8.130;2023-04-30T20:27:58;99561.06;;;17.13;37.50
55317;BME280;41178;48.956;8.130;2023-04-30T20:33:00;99553.69;;;18.08;36.72
55317;BME280;41178;48.956;8.130;2023-04-30T20:38:02;99558.25;;;17.20;37.45
55317;BME280;41178;48.956;8.130;2023-04-30T20:43:03;99506.09;;;18.53;36.58
55317;BME280;41178;48.956;8.130;2023-04-30T20:48:05;99527.66;;;16.53;38.73
55317;BME280;41178;48.956;8.130;2023-04-30T20:53:07;99506.25;;;16.40;38.31
55317;BME280;41178;48.956;8.130;2023-04-30T20:58:11;99543.75;;;16.60;38.73
55317;BME280;41178;48.956;8.130;2023-04-30T21:03:13;99542.94;;;16.59;38.79
55317;BME280;41178;48.956;8.130;2023-04-30T21:08:15;99526.94;;;15.79;40.42
55317;BME280;41178;48.956;8.130;2023-04-30T21:13:16;99547.66;;;17.42;38.79
55317;BME280;41178;48.956;8.130;2023-04-30T21:18:18;99567.31;;;15.85;40.05
55317;BME280;41178;48.956;8.130;2023-04-30T21:23:20;99501.75;;;18.86;36.90
55317;BME280;41178;48.956;8.130;2023-04-30T21:28:22;99484.97;;;19.39;36.90
55317;BME280;41178;48.956;8.130;2023-04-30T21:33:23;99500.19;;;18.56;37.83
55317;BME280;41178;48.956;8.130;2023-04-30T21:38:25;99518.16;;;18.45;37.52
55317;BME280;41178;48.956;8.130;2023-04-30T21:43:27;99526.91;;;17.95;37.75
55317;BME280;41178;48.956;8.130;2023-04-30T21:48:28;99556.06;;;18.04;38.20
55317;BME280;41178;48.956;8.130;2023-04-30T21:53:30;99515.66;;;17.50;38.19
55317;BME280;41178;48.956;8.130;2023-04-30T21:58:32;99534.44;;;17.92;38.39
55317;BME280;41178;48.956;8.130;2023-04-30T22:03:33;99553.78;;;17.13;39.03
55317;BME280;41178;48.956;8.130;2023-04-30T22:08:36;99534.94;;;16.04;40.08
55317;BME280;41178;48.956;8.130;2023-04-30T22:13:37;99513.06;;;14.81;42.36
55317;BME280;41178;48.956;8.130;2023-04-30T22:18:39;99554.44;;;15.69;41.85
55317;BME280;41178;48.956;8.130;2023-04-30T22:23:41;99533.03;;;16.53;40.91
55317;BME280;41178;48.956;8.130;2023-04-30T22:28:42;99548.19;;;16.24;41.50
55317;BME280;41178;48.956;8.130;2023-04-30T22:33:44;99546.66;;;15.79;42.32
55317;BME280;41178;48.956;8.130;2023-04-30T22:38:47;99530.25;;;16.60;41.47
55317;BME280;41178;48.956;8.130;2023-04-30T22:43:49;99517.56;;;17.14;40.65
55317;BME280;41178;48.956;8.130;2023-04-30T22:48:50;99540.81;;;16.61;41.14
55317;BME280;41178;48.956;8.130;2023-04-30T22:53:53;99505.03;;;16.66;41.09
55317;BME280;41178;48.956;8.130;2023-04-30T22:58:56;99529.16;;;16.00;41.99
55317;BME280;41178;48.956;8.130;2023-04-30T23:03:58;99533.34;;;16.64;41.24
55317;BME280;41178;48.956;8.130;2023-04-30T23:09:00;99543.47;;;16.80;41.06
55317;BME280;41178;48.956;8.130;2023-04-30T23:14:01;99540.47;;;17.12;40.57
55317;BME280;41178;48.956;8.130;2023-04-30T23:19:03;99553.84;;;15.85;42.12
55317;BME280;41178;48.956;8.130;2023-04-30T23:24:05;99519.94;;;15.52;41.78
55317;BME280;41178;48.956;8.130;2023-04-30T23:29:07;99529.16;;;16.00;41.21
55317;BME280;41178;48.956;8.130;2023-04-30T23:34:08;99526.50;;;17.03;40.82
55317;BME280;41178;48.956;8.130;2023-04-30T23:39:10;99521.00;;;15.88;41.32
55317;BME280;41178;48.956;8.130;2023-04-30T23:44:12;99562.69;;;15.93;41.54
55317;BME280;41178;48.956;8.130;2023-04-30T23:49:13;99545.28;;;14.69;43.50
55317;BME280;41178;48.956;8.130;2023-04-30T23:54:18;99490.31;;;13.61;45.08
55317;BME280;41178;48.956;8.130;2023-04-30T23:59:20;99551.19;;;14.14;44.82
